Time;durP1;ratioP1;P1;durP2;ratioP2;P2;SDS_P1;SDS_P2;PMS_P1;PMS_P2;Temp;Humidity;BMP_temperature;BMP_pressure;BME280_temperature;BME280_humidity;BME280_pressure;Samples;Min_cycle;Max_cycle;Signal;HPM_P1;HPM_P2
2022/04/25 00:00:55;;;;;;;17.57;11.23;;;8.40;99.90;;;;;;5017420;28;20049;-80
2022/04/25 00:03:21;;;;;;;22.20;12.80;;;8.40;99.90;;;;;;4993263;28;20041;-81
2022/04/25 00:05:47;;;;;;;19.90;12.40;;;8.40;99.90;;;;;;4994244;28;20038;-80
2022/04/25 00:08:13;;;;;;;19.57;11.80;;;8.40;99.90;;;;;;4988831;28;20539;-80
2022/04/25 00:10:38;;;;;;;22.37;13.17;;;8.40;99.90;;;;;;4992042;28;20587;-80
2022/04/25 00:13:04;;;;;;;22.43;13.50;;;8.30;99.90;;;;;;5004182;28;20497;-80
2022/04/25 00:15:30;;;;;;;24.07;13.37;;;8.30;99.90;;;;;;4988978;28;20045;-81
2022/04/25 00:17:56;;;;;;;21.13;13.67;;;8.30;99.90;;;;;;5003163;28;20124;-82
2022/04/25 00:20:21;;;;;;;23.40;14.30;;;8.20;99.90;;;;;;4993011;28;20037;-80
2022/04/25 00:22:47;;;;;;;25.93;14.67;;;8.20;99.90;;;;;;4995827;28;20037;-79
2022/04/25 00:25:13;;;;;;;21.53;14.40;;;8.10;99.90;;;;;;4967425;28;20040;-80
2022/04/25 00:27:39;;;;;;;25.23;15.37;;;8.20;99.90;;;;;;5013735;28;20037;-79
2022/04/25 00:30:06;;;;;;;27.10;14.70;;;8.10;99.90;;;;;;5009869;28;20046;-79
2022/04/25 00:32:31;;;;;;;26.70;14.70;;;8.10;99.90;;;;;;5012498;28;20073;-79
2022/04/25 00:34:57;;;;;;;25.67;15.93;;;8.00;99.90;;;;;;4990941;28;20504;-78
2022/04/25 00:37:23;;;;;;;26.07;15.77;;;8.00;99.90;;;;;;5008778;28;20121;-79
2022/04/25 00:39:49;;;;;;;23.77;15.53;;;8.00;99.90;;;;;;5003517;28;20100;-79
2022/04/25 00:42:15;;;;;;;27.17;15.47;;;7.90;99.90;;;;;;4983068;28;20493;-78
2022/04/25 00:44:41;;;;;;;25.83;15.43;;;8.00;99.90;;;;;;5026277;28;20083;-79
2022/04/25 00:47:09;;;;;;;24.80;15.80;;;8.00;99.90;;;;;;5014602;28;20045;-78
2022/04/25 00:49:35;;;;;;;24.93;15.10;;;8.00;99.90;;;;;;5020853;28;20050;-79
2022/04/25 00:52:01;;;;;;;27.03;17.03;;;8.00;99.90;;;;;;5015871;28;20084;-79
2022/04/25 00:54:27;;;;;;;27.47;16.30;;;7.90;99.90;;;;;;4999982;28;20069;-79
2022/04/25 00:56:53;;;;;;;28.60;16.27;;;7.90;99.90;;;;;;4991031;28;20053;-80
2022/04/25 00:59:24;;;;;;;24.00;16.37;;;7.90;99.90;;;;;;5000119;28;20408;-80
2022/04/25 01:01:51;;;;;;;26.67;16.97;;;7.90;99.90;;;;;;5006292;28;20087;-79
2022/04/25 01:04:17;;;;;;;26.07;16.90;;;7.90;99.90;;;;;;5002674;28;20045;-79
2022/04/25 01:06:43;;;;;;;28.20;17.97;;;7.80;99.90;;;;;;5015588;28;20120;-79
2022/04/25 01:09:09;;;;;;;30.43;18.00;;;7.80;99.90;;;;;;4973476;28;20386;-80
2022/04/25 01:11:35;;;;;;;26.97;17.60;;;7.80;99.90;;;;;;4997526;28;20048;-80
2022/04/25 01:14:14;;;;;;;27.67;17.63;;;7.70;99.90;;;;;;5006363;28;20077;-79
2022/04/25 01:16:40;;;;;;;28.10;17.67;;;7.70;99.90;;;;;;4997031;28;20377;-81
2022/04/25 01:19:06;;;;;;;29.40;17.83;;;7.70;99.90;;;;;;4981364;28;20041;-80
2022/04/25 01:21:41;;;;;;;27.37;17.10;;;7.60;99.90;;;;;;4991692;28;20038;-80
2022/04/25 01:29:38;;;;;;;28.73;16.83;;;7.50;99.90;;;;;;4998186;28;20042;-80
2022/04/25 01:32:04;;;;;;;33.93;17.50;;;7.40;99.90;;;;;;5001218;28;20378;-78
2022/04/25 01:34:32;;;;;;;27.70;17.50;;;7.40;99.90;;;;;;4987414;28;20042;-80
2022/04/25 01:36:58;;;;;;;32.50;18.70;;;7.30;99.90;;;;;;4993944;28;20134;-81
2022/04/25 01:39:24;;;;;;;25.47;16.30;;;7.30;99.90;;;;;;5032116;28;20037;-80
2022/04/25 01:41:50;;;;;;;30.70;17.63;;;7.20;99.90;;;;;;5014039;28;20046;-79
2022/04/25 01:44:18;;;;;;;26.63;16.73;;;7.20;99.90;;;;;;5016492;28;20400;-79
2022/04/25 01:46:44;;;;;;;28.40;16.13;;;7.10;99.90;;;;;;5033824;28;20117;-79
2022/04/25 01:49:10;;;;;;;26.60;17.47;;;7.10;99.90;;;;;;5011042;28;20571;-80
2022/04/25 01:51:39;;;;;;;30.70;16.97;;;7.10;99.90;;;;;;4972900;28;20124;-81
2022/04/25 01:54:05;;;;;;;25.07;16.50;;;7.10;99.90;;;;;;4997672;28;20085;-80
2022/04/25 01:56:31;;;;;;;28.17;16.57;;;7.00;99.90;;;;;;4997191;28;20084;-81
2022/04/25 01:58:57;;;;;;;29.60;16.73;;;6.90;99.90;;;;;;4996697;28;20038;-81
2022/04/25 02:01:23;;;;;;;31.30;16.97;;;6.90;99.90;;;;;;4969994;28;20047;-80
2022/04/25 02:03:49;;;;;;;27.50;16.83;;;6.90;99.90;;;;;;4997025;28;20029;-80
2022/04/25 02:06:14;;;;;;;30.70;17.23;;;6.90;99.90;;;;;;5007632;28;20040;-81
2022/04/25 02:08:40;;;;;;;27.17;16.27;;;6.90;99.90;;;;;;5012406;28;20030;-80
2022/04/25 02:11:22;;;;;;;24.63;15.37;;;6.80;99.90;;;;;;5013275;28;20049;-80
2022/04/25 02:13:51;;;;;;;27.55;16.20;;;6.80;99.90;;;;;;4981462;28;20416;-80
2022/04/25 02:16:18;;;;;;;34.67;17.07;;;6.80;99.90;;;;;;4995681;28;20099;-80
2022/04/25 02:18:44;;;;;;;29.17;16.80;;;6.80;99.90;;;;;;5024421;28;20069;-81
2022/04/25 02:21:10;;;;;;;31.63;16.70;;;6.80;99.90;;;;;;4988384;28;20069;-81
2022/04/25 02:23:37;;;;;;;33.27;16.17;;;6.90;99.90;;;;;;4999866;28;20044;-81
2022/04/25 02:26:02;;;;;;;28.90;16.37;;;6.90;99.90;;;;;;5023855;28;20772;-80
2022/04/25 02:28:28;;;;;;;29.50;17.47;;;6.90;99.90;;;;;;4999844;28;20110;-80
2022/04/25 02:30:54;;;;;;;27.27;16.30;;;6.80;99.90;;;;;;5012754;28;20060;-80
2022/04/25 02:33:20;;;;;;;30.00;15.90;;;6.90;99.90;;;;;;5015942;28;20610;-81
2022/04/25 02:35:45;;;;;;;24.30;15.23;;;6.90;99.90;;;;;;5016114;28;20072;-81
2022/04/25 02:38:11;;;;;;;30.63;15.90;;;7.00;99.90;;;;;;4983674;28;20041;-80
2022/04/25 02:40:37;;;;;;;28.33;15.63;;;7.00;99.90;;;;;;4996603;28;20041;-80
2022/04/25 02:43:03;;;;;;;26.13;15.20;;;7.00;99.90;;;;;;5012812;28;20038;-80
2022/04/25 02:45:29;;;;;;;27.50;15.03;;;7.10;99.90;;;;;;4996048;28;20040;-81
2022/04/25 02:47:55;;;;;;;26.47;15.33;;;7.10;99.90;;;;;;4995836;28;20426;-80
2022/04/25 02:50:21;;;;;;;24.60;15.17;;;7.00;99.90;;;;;;4995659;28;20409;-80
2022/04/25 02:52:47;;;;;;;23.47;14.60;;;7.10;99.90;;;;;;5015824;28;20127;-80
2022/04/25 02:55:13;;;;;;;28.47;14.23;;;7.10;99.90;;;;;;4996895;28;20049;-81
2022/04/25 02:57:38;;;;;;;23.10;14.23;;;7.10;99.90;;;;;;4989667;28;20083;-81
2022/04/25 03:00:05;;;;;;;32.50;15.47;;;7.20;99.90;;;;;;5012011;28;20046;-80
2022/04/25 03:02:31;;;;;;;26.53;14.97;;;7.10;99.90;;;;;;4988065;28;20038;-81
2022/04/25 03:04:57;;;;;;;25.80;15.27;;;7.20;99.90;;;;;;5010702;28;20121;-81
2022/04/25 03:07:23;;;;;;;32.57;15.50;;;7.10;99.90;;;;;;5008450;28;20045;-81
2022/04/25 03:09:49;;;;;;;29.23;14.60;;;7.10;99.90;;;;;;5010512;28;20486;-81
2022/04/25 03:12:15;;;;;;;27.30;14.57;;;7.10;99.90;;;;;;5027891;28;20064;-81
2022/04/25 03:14:41;;;;;;;25.70;14.67;;;7.10;99.90;;;;;;5015958;28;20436;-81
2022/04/25 03:17:07;;;;;;;27.20;14.57;;;7.10;99.90;;;;;;4985187;28;20049;-81
2022/04/25 03:19:32;;;;;;;33.00;16.67;;;7.10;99.90;;;;;;4963410;28;20518;-81
2022/04/25 03:21:59;;;;;;;25.17;15.40;;;7.10;99.90;;;;;;4986130;28;20129;-81
2022/04/25 03:24:24;;;;;;;29.77;15.23;;;7.10;99.90;;;;;;5011470;28;20044;-81
2022/04/25 03:26:50;;;;;;;25.57;14.67;;;7.00;99.90;;;;;;5014985;28;20116;-81
2022/04/25 03:29:16;;;;;;;22.80;13.60;;;7.10;99.90;;;;;;5007260;28;20041;-81
2022/04/25 03:31:43;;;;;;;31.03;15.67;;;7.10;99.90;;;;;;5007928;28;20513;-81
2022/04/25 03:34:08;;;;;;;25.93;15.03;;;7.10;99.90;;;;;;5028223;28;20053;-81
2022/04/25 03:36:34;;;;;;;26.30;15.23;;;7.10;99.90;;;;;;5005767;28;20053;-81
2022/04/25 03:39:00;;;;;;;28.40;15.30;;;7.00;99.90;;;;;;4995112;28;20493;-80
2022/04/25 03:41:25;;;;;;;27.43;14.50;;;7.20;99.90;;;;;;4984951;28;20042;-81
2022/04/25 03:43:51;;;;;;;25.57;14.47;;;7.10;99.90;;;;;;4995585;28;20381;-80
2022/04/25 03:46:17;;;;;;;24.17;14.33;;;7.00;99.90;;;;;;4982860;28;20041;-81
2022/04/25 03:48:44;;;;;;;26.97;14.57;;;7.10;99.90;;;;;;4998872;28;20057;-80
2022/04/25 03:51:10;;;;;;;27.63;14.70;;;7.10;99.90;;;;;;4977453;28;20556;-80
2022/04/25 03:53:38;;;;;;;23.00;15.60;;;7.00;99.90;;;;;;5004742;28;20049;-80
2022/04/25 03:58:48;;;;;;;26.03;15.37;;;7.00;99.90;;;;;;5011052;28;20054;-80
2022/04/25 04:01:14;;;;;;;25.20;14.80;;;7.00;99.90;;;;;;4995356;28;20038;-80
2022/04/25 04:03:40;;;;;;;24.43;15.37;;;7.10;99.90;;;;;;4998172;28;20056;-80
2022/04/25 04:06:07;;;;;;;23.00;14.03;;;7.00;99.90;;;;;;4985898;28;20049;-79
2022/04/25 04:08:33;;;;;;;22.90;14.73;;;7.10;99.90;;;;;;5004043;28;20037;-79
2022/04/25 04:10:59;;;;;;;23.43;13.87;;;7.00;99.90;;;;;;5017852;28;20392;-80
2022/04/25 04:13:25;;;;;;;21.17;14.07;;;7.10;99.90;;;;;;5003751;28;20049;-80
2022/04/25 04:15:52;;;;;;;24.87;13.47;;;7.10;99.90;;;;;;5028448;28;20040;-80
2022/04/25 04:18:18;;;;;;;23.17;13.63;;;7.10;99.90;;;;;;5004816;28;20041;-80
2022/04/25 04:20:43;;;;;;;26.83;14.07;;;7.00;99.90;;;;;;5005377;28;20045;-80
2022/04/25 04:23:10;;;;;;;22.80;13.80;;;7.10;99.90;;;;;;4985014;28;20125;-80
2022/04/25 04:25:36;;;;;;;25.50;13.57;;;7.00;99.90;;;;;;5020701;28;20095;-80
2022/04/25 04:28:02;;;;;;;23.10;14.17;;;7.00;99.90;;;;;;4991970;28;20092;-79
2022/04/25 04:30:29;;;;;;;23.57;13.17;;;7.00;99.90;;;;;;5001436;28;20069;-79
2022/04/25 04:32:54;;;;;;;24.73;13.70;;;7.00;99.90;;;;;;5001183;28;20045;-80
2022/04/25 04:38:05;;;;;;;23.77;14.10;;;7.10;99.90;;;;;;4981498;28;20128;-79
2022/04/25 04:40:32;;;;;;;22.57;13.10;;;7.00;99.90;;;;;;5016050;28;20034;-80
2022/04/25 04:42:58;;;;;;;23.60;13.50;;;7.10;99.90;;;;;;4990760;28;20041;-79
2022/04/25 04:45:24;;;;;;;20.73;13.07;;;7.10;99.90;;;;;;4990023;28;20045;-79
2022/04/25 04:47:50;;;;;;;21.17;12.27;;;7.10;99.90;;;;;;5001932;28;20049;-80
2022/04/25 04:50:16;;;;;;;21.93;12.50;;;7.00;99.90;;;;;;5003460;28;20107;-80
2022/04/25 04:52:52;;;;;;;17.90;11.83;;;7.00;99.90;;;;;;4995896;28;20038;-80
2022/04/25 04:55:18;;;;;;;18.17;12.37;;;7.00;99.90;;;;;;5001395;28;20050;-80
2022/04/25 04:57:44;;;;;;;24.13;13.03;;;7.00;99.90;;;;;;5012806;28;20052;-80
2022/04/25 05:00:15;;;;;;;23.33;11.63;;;7.10;99.90;;;;;;5012696;28;20049;-80
2022/04/25 05:02:42;;;;;;;19.20;11.93;;;7.10;99.90;;;;;;5000684;28;20100;-80
2022/04/25 05:05:08;;;;;;;24.20;13.80;;;7.10;99.90;;;;;;5016912;28;20128;-80
2022/04/25 05:07:35;;;;;;;21.97;12.63;;;7.10;99.90;;;;;;5015744;28;20040;-79
2022/04/25 05:10:03;;;;;;;19.60;12.10;;;7.00;99.90;;;;;;5001658;28;20041;-79
2022/04/25 05:12:29;;;;;;;27.37;13.70;;;7.10;99.90;;;;;;5016578;28;20412;-79
2022/04/25 05:14:55;;;;;;;19.40;11.80;;;7.10;99.90;;;;;;5016532;28;20057;-80
2022/04/25 05:17:22;;;;;;;21.97;12.87;;;7.10;99.90;;;;;;4974671;28;20401;-80
2022/04/25 05:19:48;;;;;;;20.37;11.47;;;7.10;99.90;;;;;;4997854;28;20046;-80
2022/04/25 05:22:14;;;;;;;18.60;11.67;;;7.10;99.90;;;;;;5010496;28;20033;-80
2022/04/25 05:24:40;;;;;;;21.73;12.33;;;7.10;99.90;;;;;;4999573;28;20124;-80
2022/04/25 05:27:06;;;;;;;21.43;11.80;;;7.10;99.90;;;;;;4996258;28;20073;-80
2022/04/25 05:29:32;;;;;;;23.70;12.80;;;7.20;99.90;;;;;;5030983;28;20034;-79
2022/04/25 05:31:58;;;;;;;25.07;13.40;;;7.10;99.90;;;;;;4997271;28;20053;-80
2022/04/25 05:34:23;;;;;;;19.33;12.13;;;7.10;99.90;;;;;;4964793;28;20041;-80
2022/04/25 05:36:49;;;;;;;21.77;12.73;;;7.20;99.90;;;;;;4997114;28;20631;-80
2022/04/25 05:39:15;;;;;;;20.33;12.53;;;7.10;99.90;;;;;;4975878;28;20045;-79
2022/04/25 05:41:41;;;;;;;19.47;12.10;;;7.20;99.90;;;;;;5001766;28;20038;-79
2022/04/25 05:44:09;;;;;;;28.50;13.20;;;7.20;99.90;;;;;;4985980;28;20038;-79
2022/04/25 05:46:34;;;;;;;18.93;12.20;;;7.30;99.90;;;;;;5012365;28;20030;-80
2022/04/25 05:52:00;;;;;;;22.47;13.53;;;7.40;99.90;;;;;;4988239;28;20034;-79
2022/04/25 05:54:27;;;;;;;22.07;13.83;;;7.40;99.90;;;;;;4994169;28;20044;-79
2022/04/25 05:56:52;;;;;;;23.43;12.97;;;7.50;99.90;;;;;;4978952;28;20426;-80
2022/04/25 05:59:19;;;;;;;24.70;14.53;;;7.50;99.90;;;;;;4981784;28;20129;-80
2022/04/25 06:01:44;;;;;;;20.87;13.90;;;7.60;99.90;;;;;;4997356;28;20472;-80
2022/04/25 06:04:11;;;;;;;26.07;13.83;;;7.60;99.90;;;;;;5013308;28;20133;-80
2022/04/25 06:06:37;;;;;;;25.10;13.73;;;7.60;99.90;;;;;;4999505;28;20060;-79
2022/04/25 06:09:03;;;;;;;26.47;13.87;;;7.60;99.90;;;;;;4987295;28;20670;-80
2022/04/25 06:11:29;;;;;;;21.80;12.93;;;7.60;99.90;;;;;;5004936;28;20045;-79
2022/04/25 06:13:56;;;;;;;23.70;13.23;;;7.60;99.90;;;;;;5030808;28;20068;-79
2022/04/25 06:16:22;;;;;;;24.43;13.70;;;7.70;99.90;;;;;;4996728;28;20497;-80
2022/04/25 06:18:47;;;;;;;22.60;13.00;;;7.60;99.90;;;;;;4997333;28;20044;-80
2022/04/25 06:21:13;;;;;;;21.77;13.30;;;7.60;99.90;;;;;;4988288;28;20457;-80
2022/04/25 06:23:39;;;;;;;24.13;13.43;;;7.60;99.90;;;;;;4978559;28;20034;-80
2022/04/25 06:26:05;;;;;;;19.40;12.37;;;7.60;99.90;;;;;;5001236;28;20056;-79
2022/04/25 06:28:30;;;;;;;22.67;13.20;;;7.60;99.90;;;;;;5015518;28;20088;-80
2022/04/25 06:30:56;;;;;;;19.20;13.23;;;7.60;99.90;;;;;;5012199;28;20129;-79
2022/04/25 06:33:22;;;;;;;20.37;13.03;;;7.60;99.90;;;;;;5013212;28;20072;-80
2022/04/25 06:35:49;;;;;;;22.53;12.07;;;7.60;99.90;;;;;;5005820;28;20078;-78
2022/04/25 06:38:15;;;;;;;18.00;11.80;;;7.60;99.90;;;;;;5010202;28;20123;-78
2022/04/25 06:40:42;;;;;;;19.13;12.63;;;7.60;99.90;;;;;;5010836;28;20041;-77
2022/04/25 06:43:08;;;;;;;20.57;12.10;;;7.60;99.90;;;;;;4999668;28;20453;-77
2022/04/25 06:45:34;;;;;;;16.37;10.87;;;7.60;99.90;;;;;;5005704;28;20033;-77
2022/04/25 06:48:00;;;;;;;20.17;12.23;;;7.60;99.90;;;;;;5019162;28;20077;-77
2022/04/25 06:50:26;;;;;;;18.07;11.77;;;7.60;99.90;;;;;;4986788;28;20481;-77
2022/04/25 06:52:52;;;;;;;20.10;11.97;;;7.60;99.90;;;;;;4978403;28;20033;-77
2022/04/25 06:55:19;;;;;;;17.50;10.97;;;7.60;99.90;;;;;;4979125;28;20054;-77
2022/04/25 06:57:47;;;;;;;18.03;11.17;;;7.60;99.90;;;;;;5010681;28;20042;-78
2022/04/25 07:00:17;;;;;;;15.30;10.90;;;7.60;99.90;;;;;;4977499;28;20073;-78
2022/04/25 07:02:44;;;;;;;17.50;11.07;;;7.50;99.90;;;;;;5020599;28;20053;-78
2022/04/25 07:05:10;;;;;;;17.13;10.93;;;7.50;99.90;;;;;;4997893;28;20030;-78
2022/04/25 07:07:38;;;;;;;16.67;11.27;;;7.40;99.90;;;;;;4976846;28;20061;-77
2022/04/25 07:10:07;;;;;;;18.47;10.67;;;7.40;99.90;;;;;;4993612;28;20061;-77
2022/04/25 07:12:33;;;;;;;19.47;11.93;;;7.40;99.90;;;;;;4990813;28;20600;-77
2022/04/25 07:14:59;;;;;;;20.57;11.60;;;7.40;99.90;;;;;;4980302;28;20121;-78
2022/04/25 07:17:26;;;;;;;22.13;12.60;;;7.40;99.90;;;;;;4975331;28;20042;-77
2022/04/25 07:19:51;;;;;;;20.00;11.50;;;7.40;99.90;;;;;;4990785;28;20076;-78
2022/04/25 07:30:31;;;;;;;19.83;11.77;;;7.30;99.90;;;;;;4978591;28;20057;-78
2022/04/25 07:32:57;;;;;;;21.37;11.77;;;7.40;99.90;;;;;;4990145;28;20050;-78
2022/04/25 07:35:23;;;;;;;18.63;12.17;;;7.30;99.90;;;;;;4973153;28;20841;-78
2022/04/25 07:37:48;;;;;;;18.60;12.23;;;7.40;99.90;;;;;;4989387;28;20041;-78
2022/04/25 07:40:14;;;;;;;21.60;12.60;;;7.50;99.90;;;;;;4972700;28;20049;-78
2022/04/25 07:42:40;;;;;;;18.67;11.47;;;7.50;99.90;;;;;;4987263;28;20042;-77
2022/04/25 07:45:07;;;;;;;19.80;11.63;;;7.50;99.90;;;;;;4974402;28;20053;-78
2022/04/25 07:47:34;;;;;;;17.80;10.83;;;7.50;99.90;;;;;;4989881;28;20128;-78
2022/04/25 07:50:01;;;;;;;18.43;11.43;;;7.50;99.90;;;;;;4990672;28;20061;-78
2022/04/25 07:52:27;;;;;;;23.40;11.10;;;7.50;99.90;;;;;;4988275;28;20034;-77
2022/04/25 07:54:55;;;;;;;21.60;12.33;;;7.60;99.90;;;;;;4974318;28;20123;-78
2022/04/25 07:57:20;;;;;;;18.73;12.10;;;7.50;99.90;;;;;;4974384;28;20045;-78
2022/04/25 07:59:47;;;;;;;20.23;12.30;;;7.50;99.90;;;;;;4990396;28;20037;-78
2022/04/25 08:02:12;;;;;;;20.33;12.53;;;7.50;99.90;;;;;;4969377;28;20097;-79
2022/04/25 08:04:38;;;;;;;19.20;11.53;;;7.40;99.90;;;;;;4965018;28;21429;-78
2022/04/25 08:07:04;;;;;;;23.50;12.87;;;7.50;99.90;;;;;;4986292;28;20045;-79
2022/04/25 08:09:30;;;;;;;20.90;12.43;;;7.40;99.90;;;;;;4963510;28;20045;-78
2022/04/25 08:20:09;;;;;;;23.67;12.53;;;7.50;99.90;;;;;;4990050;28;20042;-78
2022/04/25 08:22:35;;;;;;;23.57;13.17;;;7.50;99.90;;;;;;4987037;28;20046;-78
2022/04/25 08:25:01;;;;;;;18.00;10.73;;;7.50;99.90;;;;;;4968466;28;20046;-78
2022/04/25 08:27:27;;;;;;;20.00;12.17;;;7.50;99.90;;;;;;5005565;28;20562;-78
2022/04/25 08:29:53;;;;;;;19.60;11.77;;;7.50;99.90;;;;;;4973846;28;20157;-78
2022/04/25 08:32:19;;;;;;;19.93;11.03;;;7.60;99.90;;;;;;4990365;28;20037;-77
2022/04/25 08:34:45;;;;;;;21.00;10.47;;;7.70;99.90;;;;;;4973453;28;20046;-78
2022/04/25 08:37:13;;;;;;;21.33;11.43;;;7.70;99.90;;;;;;4972458;28;20037;-77
2022/04/25 08:39:38;;;;;;;18.10;10.63;;;7.70;99.90;;;;;;4973739;28;20962;-77
2022/04/25 08:42:08;;;;;;;18.13;11.40;;;7.80;99.90;;;;;;4989298;28;20046;-78
2022/04/25 08:44:34;;;;;;;18.73;11.40;;;7.80;99.90;;;;;;4974440;28;20145;-78
2022/04/25 08:47:01;;;;;;;18.27;11.00;;;7.90;99.90;;;;;;4988117;28;20124;-78
2022/04/25 08:49:27;;;;;;;19.10;10.73;;;7.90;99.90;;;;;;4990127;28;20152;-77
2022/04/25 08:51:59;;;;;;;16.20;10.50;;;8.00;99.90;;;;;;4974268;28;20814;-78
2022/04/25 08:54:29;;;;;;;15.68;10.50;;;8.00;99.90;;;;;;4974571;28;20172;-78
2022/04/25 08:56:55;;;;;;;14.13;10.27;;;7.90;99.90;;;;;;4973341;28;20738;-79
2022/04/25 08:59:23;;;;;;;18.03;10.80;;;7.90;99.90;;;;;;4992377;28;20133;-78
2022/04/25 09:01:49;;;;;;;25.03;11.70;;;7.90;99.90;;;;;;4977063;28;20045;-78
2022/04/25 09:04:15;;;;;;;20.33;11.37;;;7.90;99.90;;;;;;4975815;28;20445;-78
2022/04/25 09:06:41;;;;;;;18.73;11.37;;;7.90;99.90;;;;;;4991641;28;20604;-78
2022/04/25 09:09:07;;;;;;;20.57;10.90;;;7.80;99.90;;;;;;4993809;28;20490;-78
2022/04/25 09:14:18;;;;;;;21.00;11.87;;;7.70;99.90;;;;;;5009916;28;20088;-79
2022/04/25 09:16:45;;;;;;;20.43;10.77;;;7.70;99.90;;;;;;4994406;28;20041;-77
2022/04/25 09:19:11;;;;;;;20.50;11.10;;;7.70;99.90;;;;;;4978904;28;20424;-78
2022/04/25 09:21:41;;;;;;;21.30;10.80;;;7.60;99.90;;;;;;4992894;28;20156;-77
2022/04/25 09:24:25;;;;;;;18.63;10.43;;;7.70;99.90;;;;;;4976853;28;20038;-77
2022/04/25 09:27:12;;;;;;;18.13;10.57;;;7.60;99.90;;;;;;4991684;28;20045;-79
2022/04/25 09:29:39;;;;;;;17.70;10.40;;;7.60;99.90;;;;;;4992887;28;20053;-78
2022/04/25 09:32:09;;;;;;;16.70;10.67;;;7.60;99.90;;;;;;5009747;28;20522;-78
2022/04/25 09:37:38;;;;;;;18.57;10.20;;;7.70;99.90;;;;;;4991573;28;20053;-78
2022/04/25 09:40:04;;;;;;;16.63;9.87;;;7.70;99.90;;;;;;4990724;28;20501;-78
2022/04/25 09:42:29;;;;;;;15.77;9.87;;;7.70;99.90;;;;;;4970592;28;20050;-78
2022/04/25 09:44:58;;;;;;;15.07;9.83;;;7.80;99.90;;;;;;4975185;28;20096;-78
2022/04/25 09:47:31;;;;;;;14.33;9.80;;;7.80;99.90;;;;;;4991315;28;20040;-78
2022/04/25 09:50:11;;;;;;;14.47;8.93;;;7.90;99.90;;;;;;4991416;28;20089;-78
2022/04/25 09:52:55;;;;;;;17.07;10.17;;;8.00;99.90;;;;;;4973652;28;20362;-78
2022/04/25 09:55:23;;;;;;;13.37;8.87;;;8.10;99.90;;;;;;5007703;28;20042;-77
2022/04/25 09:57:50;;;;;;;16.00;9.20;;;8.10;99.90;;;;;;4991025;28;20129;-78
2022/04/25 10:00:38;;;;;;;13.27;8.13;;;8.10;99.90;;;;;;4991644;28;20102;-78
2022/04/25 10:03:09;;;;;;;13.60;8.30;;;8.30;99.90;;;;;;4975919;28;20458;-78
2022/04/25 10:05:40;;;;;;;11.23;8.70;;;8.30;99.90;;;;;;4991724;28;20042;-78
2022/04/25 10:08:08;;;;;;;13.60;8.23;;;8.30;99.90;;;;;;4975543;28;20127;-78
2022/04/25 10:10:34;;;;;;;14.57;7.87;;;8.40;99.90;;;;;;4991466;28;20065;-78
2022/04/25 10:13:01;;;;;;;11.63;7.97;;;8.40;99.90;;;;;;4990366;28;20405;-78
2022/04/25 10:15:27;;;;;;;14.93;7.87;;;8.50;99.90;;;;;;5005807;28;20046;-78
2022/04/25 10:17:55;;;;;;;13.93;8.23;;;8.50;99.90;;;;;;4970679;28;20049;-78
2022/04/25 10:20:21;;;;;;;15.70;8.73;;;8.60;99.90;;;;;;4987888;28;20045;-78
2022/04/25 10:22:47;;;;;;;15.90;9.43;;;8.70;99.90;;;;;;4987586;28;20428;-77
2022/04/25 10:25:13;;;;;;;15.30;9.37;;;8.70;99.90;;;;;;4988430;28;20042;-77
2022/04/25 10:27:43;;;;;;;10.77;8.50;;;8.80;99.90;;;;;;4971829;28;20057;-78
2022/04/25 10:30:17;;;;;;;15.53;9.13;;;8.90;99.90;;;;;;4988290;28;20440;-78
2022/04/25 10:32:43;;;;;;;15.57;8.90;;;9.00;99.90;;;;;;5003199;28;20038;-78
2022/04/25 10:35:14;;;;;;;14.07;8.57;;;9.10;99.90;;;;;;4988281;28;20231;-78
2022/04/25 10:37:42;;;;;;;17.30;9.57;;;9.30;99.90;;;;;;4981851;28;20045;-78
2022/04/25 10:40:13;;;;;;;12.97;9.53;;;9.40;99.90;;;;;;4988350;28;20045;-77
2022/04/25 10:46:02;;;;;;;13.87;9.80;;;9.70;99.90;;;;;;5005141;28;20053;-77
2022/04/25 10:48:49;;;;;;;16.08;9.52;;;9.80;99.90;;;;;;4958997;28;20083;-78
2022/04/25 10:51:18;;;;;;;14.83;10.17;;;9.90;99.90;;;;;;4963254;28;20046;-77
2022/04/25 10:53:59;;;;;;;15.77;10.33;;;10.00;99.90;;;;;;4965439;28;20074;-77
2022/04/25 10:56:26;;;;;;;14.43;9.67;;;9.90;99.90;;;;;;4947116;28;20517;-77
2022/04/25 10:59:21;;;;;;;16.47;9.77;;;10.00;99.90;;;;;;4962694;28;20410;-77
2022/04/25 11:01:48;;;;;;;14.70;10.40;;;10.00;99.90;;;;;;4949789;28;20058;-77
2022/04/25 11:04:15;;;;;;;17.93;10.57;;;10.10;99.90;;;;;;4962907;28;20037;-78
2022/04/25 11:06:41;;;;;;;17.43;10.57;;;10.20;99.90;;;;;;4960571;28;20047;-77
2022/04/25 11:09:07;;;;;;;18.53;11.00;;;10.30;99.90;;;;;;4948235;28;20145;-77
2022/04/25 11:11:51;;;;;;;13.33;9.63;;;10.40;99.90;;;;;;4963593;28;20130;-78
2022/04/25 11:14:18;;;;;;;11.83;9.30;;;10.50;99.90;;;;;;4961402;28;20506;-78
2022/04/25 11:17:13;;;;;;;11.83;9.07;;;10.50;99.90;;;;;;4960023;28;20133;-78
2022/04/25 11:19:50;;;;;;;12.93;9.23;;;10.50;99.90;;;;;;4963599;28;20057;-78
2022/04/25 11:22:35;;;;;;;14.03;9.20;;;10.40;99.90;;;;;;4964899;28;20190;-77
2022/04/25 11:25:23;;;;;;;13.70;9.10;;;10.40;99.90;;;;;;4964524;28;20071;-78
2022/04/25 11:28:03;;;;;;;23.20;12.93;;;10.50;99.90;;;;;;4963219;28;20042;-77
2022/04/25 11:30:29;;;;;;;15.30;9.70;;;10.50;99.90;;;;;;4963611;28;20050;-77
2022/04/25 11:33:02;;;;;;;11.97;8.83;;;10.60;99.90;;;;;;4948580;28;20042;-78
2022/04/25 11:35:28;;;;;;;13.57;9.07;;;10.60;99.90;;;;;;4963946;28;20054;-77
2022/04/25 11:37:56;;;;;;;13.30;9.50;;;10.70;99.90;;;;;;4948446;28;20061;-77
2022/04/25 11:40:23;;;;;;;15.37;10.00;;;10.70;99.90;;;;;;4962800;28;20193;-77
2022/04/25 11:42:49;;;;;;;17.93;9.37;;;10.70;99.90;;;;;;4964554;28;20039;-77
2022/04/25 11:45:15;;;;;;;14.53;10.87;;;10.80;99.90;;;;;;4959850;28;20406;-77
2022/04/25 11:47:41;;;;;;;13.57;9.00;;;11.10;99.90;;;;;;4948521;28;20042;-78
2022/04/25 11:50:11;;;;;;;16.53;9.47;;;11.50;99.90;;;;;;4971476;28;20132;-77
2022/04/25 11:52:48;;;;;;;13.33;8.60;;;12.00;99.90;;;;;;4972202;28;20046;-77
2022/04/25 11:55:16;;;;;;;11.47;9.27;;;12.30;99.90;;;;;;4987919;28;20107;-77
2022/04/25 11:57:43;;;;;;;13.23;9.80;;;12.60;99.90;;;;;;4987660;28;20057;-77
2022/04/25 12:00:14;;;;;;;11.50;8.37;;;12.80;99.90;;;;;;5003986;28;20060;-77
2022/04/25 12:02:40;;;;;;;13.70;9.25;;;12.90;99.90;;;;;;4987260;28;20095;-77
2022/04/25 12:05:07;;;;;;;11.90;8.30;;;13.00;99.90;;;;;;4987967;28;20037;-77
2022/04/25 12:07:37;;;;;;;12.67;8.40;;;13.10;99.90;;;;;;4987787;28;20049;-77
2022/04/25 12:15:40;;;;;;;10.60;8.30;;;13.20;99.90;;;;;;4986565;28;20399;-78
2022/04/25 12:18:27;;;;;;;12.40;8.97;;;13.00;99.90;;;;;;4985611;28;20045;-77
2022/04/25 12:21:08;;;;;;;12.23;8.80;;;12.90;99.90;;;;;;4987208;28;20052;-78
2022/04/25 12:23:43;;;;;;;12.67;8.57;;;12.80;99.90;;;;;;4987464;28;20077;-78
2022/04/25 12:26:21;;;;;;;13.37;10.20;;;12.80;99.90;;;;;;4987724;28;20046;-78
2022/04/25 12:29:03;;;;;;;13.17;10.53;;;13.00;99.90;;;;;;5003105;28;20049;-78
2022/04/25 12:31:47;;;;;;;13.25;10.57;;;13.20;99.90;;;;;;4991716;28;20046;-78
2022/04/25 12:34:15;;;;;;;14.67;10.13;;;13.40;99.90;;;;;;4975876;28;20053;-77
2022/04/25 12:36:55;;;;;;;11.57;9.27;;;13.50;99.90;;;;;;4991565;28;20077;-78
2022/04/25 12:39:21;;;;;;;12.03;9.43;;;13.70;99.90;;;;;;4991218;28;20073;-78
2022/04/25 12:41:58;;;;;;;14.90;9.63;;;13.80;99.90;;;;;;4975245;28;20038;-78
2022/04/25 12:44:26;;;;;;;13.77;9.57;;;13.80;99.90;;;;;;5007360;28;20049;-77
2022/04/25 12:47:15;;;;;;;9.30;8.30;;;13.80;99.90;;;;;;4991109;28;20490;-78
2022/04/25 12:49:46;;;;;;;14.80;9.70;;;13.80;99.90;;;;;;5007455;28;20464;-78
2022/04/25 12:52:13;;;;;;;11.15;9.48;;;13.70;99.90;;;;;;4976202;28;20828;-78
2022/04/25 12:54:42;;;;;;;16.20;10.10;;;13.60;99.90;;;;;;4975800;28;20507;-78
2022/04/25 12:57:18;;;;;;;14.23;10.30;;;13.50;99.90;;;;;;4991251;28;20478;-77
2022/04/25 12:59:52;;;;;;;15.10;10.63;;;13.50;99.90;;;;;;5007458;28;20486;-77
2022/04/25 13:02:26;;;;;;;12.17;10.13;;;13.40;99.90;;;;;;4991380;28;20046;-78
2022/04/25 13:05:00;;;;;;;11.97;9.90;;;13.40;99.90;;;;;;4991729;28;20133;-77
2022/04/25 13:07:31;;;;;;;16.27;10.90;;;13.40;99.90;;;;;;4991348;28;20037;-78
2022/04/25 13:09:58;;;;;;;15.60;10.93;;;13.30;99.90;;;;;;4991517;28;20760;-77
2022/04/25 13:12:36;;;;;;;17.97;12.00;;;13.30;99.90;;;;;;4990824;28;20180;-77
2022/04/25 13:15:04;;;;;;;12.87;10.13;;;13.30;99.90;;;;;;5009592;28;20572;-77
2022/04/25 13:17:30;;;;;;;13.60;10.10;;;13.20;99.90;;;;;;4997006;28;20050;-78
2022/04/25 13:19:56;;;;;;;13.93;10.43;;;13.20;99.90;;;;;;4996321;28;20037;-78
2022/04/25 13:22:22;;;;;;;13.90;10.30;;;13.10;99.90;;;;;;4979030;28;20130;-77
2022/04/25 13:24:49;;;;;;;16.20;11.23;;;13.10;99.90;;;;;;4996498;28;20041;-77
2022/04/25 13:27:15;;;;;;;15.50;10.70;;;13.10;99.90;;;;;;4998532;28;20064;-78